sensor_id;sensor_type;location;lat;lon;timestamp;P1;durP1;ratioP1;P2;durP2;ratioP2
21084;SDS011;72320;50.082;20.000;2024-01-11T00:01:19;97.30;;;42.70;;
21084;SDS011;72320;50.082;20.000;2024-01-11T00:03:45;84.70;;;40.60;;
21084;SDS011;72320;50.082;20.000;2024-01-11T00:06:11;89.70;;;41.70;;
21084;SDS011;72320;50.082;20.000;2024-01-11T00:08:37;77.80;;;40.00;;
21084;SDS011;72320;50.082;20.000;2024-01-11T00:11:06;94.30;;;42.00;;
21084;SDS011;72320;50.082;20.000;2024-01-11T00:13:32;90.30;;;38.60;;
21084;SDS011;72320;50.082;20.000;2024-01-11T00:15:57;82.40;;;42.00;;
21084;SDS011;72320;50.082;20.000;2024-01-11T00:18:24;95.40;;;44.80;;
21084;SDS011;72320;50.082;20.000;2024-01-11T00:20:50;92.20;;;43.50;;
21084;SDS011;72320;50.082;20.000;2024-01-11T00:23:20;94.60;;;41.80;;
21084;SDS011;72320;50.082;20.000;2024-01-11T00:25:47;82.00;;;40.40;;
21084;SDS011;72320;50.082;20.000;2024-01-11T00:28:14;91.00;;;40.80;;
21084;SDS011;72320;50.082;20.000;2024-01-11T00:30:40;71.50;;;33.20;;
21084;SDS011;72320;50.082;20.000;2024-01-11T00:33:06;71.80;;;37.60;;
21084;SDS011;72320;50.082;20.000;2024-01-11T00:35:32;85.60;;;39.70;;
21084;SDS011;72320;50.082;20.000;2024-01-11T00:37:58;88.50;;;44.30;;
21084;SDS011;72320;50.082;20.000;2024-01-11T00:40:24;87.30;;;40.20;;
21084;SDS011;72320;50.082;20.000;2024-01-11T00:42:50;99.00;;;43.80;;
21084;SDS011;72320;50.082;20.000;2024-01-11T00:45:16;85.00;;;41.50;;
21084;SDS011;72320;50.082;20.000;2024-01-11T00:47:43;101.60;;;46.60;;
21084;SDS011;72320;50.082;20.000;2024-01-11T00:50:13;102.60;;;43.50;;
21084;SDS011;72320;50.082;20.000;2024-01-11T00:52:39;79.30;;;41.70;;
21084;SDS011;72320;50.082;20.000;2024-01-11T00:55:06;90.90;;;41.10;;
21084;SDS011;72320;50.082;20.000;2024-01-11T00:57:32;94.80;;;42.50;;
21084;SDS011;72320;50.082;20.000;2024-01-11T01:00:01;87.40;;;40.60;;
21084;SDS011;72320;50.082;20.000;2024-01-11T01:02:28;90.00;;;41.00;;
21084;SDS011;72320;50.082;20.000;2024-01-11T01:04:54;89.40;;;42.00;;
21084;SDS011;72320;50.082;20.000;2024-01-11T01:07:19;91.10;;;44.50;;
21084;SDS011;72320;50.082;20.000;2024-01-11T01:09:45;86.90;;;42.40;;
21084;SDS011;72320;50.082;20.000;2024-01-11T01:12:11;88.20;;;41.80;;
21084;SDS011;72320;50.082;20.000;2024-01-11T01:14:37;84.20;;;44.00;;
21084;SDS011;72320;50.082;20.000;2024-01-11T01:17:03;77.30;;;40.90;;
21084;SDS011;72320;50.082;20.000;2024-01-11T01:19:30;82.40;;;40.60;;
21084;SDS011;72320;50.082;20.000;2024-01-11T01:21:57;96.50;;;41.00;;
21084;SDS011;72320;50.082;20.000;2024-01-11T01:24:22;100.20;;;40.00;;
21084;SDS011;72320;50.082;20.000;2024-01-11T01:26:49;79.70;;;38.00;;
21084;SDS011;72320;50.082;20.000;2024-01-11T01:29:16;83.40;;;40.70;;
21084;SDS011;72320;50.082;20.000;2024-01-11T01:31:42;80.10;;;37.70;;
21084;SDS011;72320;50.082;20.000;2024-01-11T01:34:08;80.20;;;39.80;;
21084;SDS011;72320;50.082;20.000;2024-01-11T01:36:34;73.10;;;37.20;;
21084;SDS011;72320;50.082;20.000;2024-01-11T01:39:00;85.70;;;38.80;;
21084;SDS011;72320;50.082;20.000;2024-01-11T01:41:26;87.60;;;39.20;;
21084;SDS011;72320;50.082;20.000;2024-01-11T01:43:52;77.20;;;38.50;;
21084;SDS011;72320;50.082;20.000;2024-01-11T01:46:24;75.30;;;37.10;;
21084;SDS011;72320;50.082;20.000;2024-01-11T01:48:56;75.30;;;39.10;;
21084;SDS011;72320;50.082;20.000;2024-01-11T01:51:26;80.50;;;36.30;;
21084;SDS011;72320;50.082;20.000;2024-01-11T01:53:56;92.70;;;38.90;;
21084;SDS011;72320;50.082;20.000;2024-01-11T01:56:24;86.50;;;37.60;;
21084;SDS011;72320;50.082;20.000;2024-01-11T01:58:51;89.30;;;36.00;;
21084;SDS011;72320;50.082;20.000;2024-01-11T02:01:19;77.70;;;35.50;;
21084;SDS011;72320;50.082;20.000;2024-01-11T02:03:49;84.00;;;40.00;;
21084;SDS011;72320;50.082;20.000;2024-01-11T02:06:18;83.40;;;36.00;;
21084;SDS011;72320;50.082;20.000;2024-01-11T02:08:48;89.40;;;38.30;;
21084;SDS011;72320;50.082;20.000;2024-01-11T02:11:20;81.60;;;37.90;;
21084;SDS011;72320;50.082;20.000;2024-01-11T02:13:47;89.20;;;39.10;;
21084;SDS011;72320;50.082;20.000;2024-01-11T02:16:14;71.90;;;35.80;;
21084;SDS011;72320;50.082;20.000;2024-01-11T02:18:41;79.30;;;38.60;;
21084;SDS011;72320;50.082;20.000;2024-01-11T02:21:09;77.70;;;36.20;;
21084;SDS011;72320;50.082;20.000;2024-01-11T02:23:42;94.30;;;37.80;;
21084;SDS011;72320;50.082;20.000;2024-01-11T02:26:13;74.00;;;36.00;;
21084;SDS011;72320;50.082;20.000;2024-01-11T02:28:46;90.50;;;37.30;;
21084;SDS011;72320;50.082;20.000;2024-01-11T02:31:15;74.60;;;37.40;;
21084;SDS011;72320;50.082;20.000;2024-01-11T02:33:42;77.00;;;37.60;;
21084;SDS011;72320;50.082;20.000;2024-01-11T02:36:08;87.10;;;40.70;;
21084;SDS011;72320;50.082;20.000;2024-01-11T02:38:34;91.20;;;41.70;;
21084;SDS011;72320;50.082;20.000;2024-01-11T02:41:01;71.30;;;35.80;;
21084;SDS011;72320;50.082;20.000;2024-01-11T02:43:28;75.50;;;34.70;;
21084;SDS011;72320;50.082;20.000;2024-01-11T02:45:55;73.00;;;39.60;;
21084;SDS011;72320;50.082;20.000;2024-01-11T02:48:21;80.40;;;38.30;;
21084;SDS011;72320;50.082;20.000;2024-01-11T02:50:48;85.00;;;40.90;;
21084;SDS011;72320;50.082;20.000;2024-01-11T02:53:15;83.10;;;37.80;;
21084;SDS011;72320;50.082;20.000;2024-01-11T02:55:41;88.30;;;39.60;;
21084;SDS011;72320;50.082;20.000;2024-01-11T02:58:07;78.10;;;35.30;;
21084;SDS011;72320;50.082;20.000;2024-01-11T03:00:36;66.90;;;35.30;;
21084;SDS011;72320;50.082;20.000;2024-01-11T03:03:03;79.20;;;36.30;;
21084;SDS011;72320;50.082;20.000;2024-01-11T03:05:29;67.80;;;34.30;;
21084;SDS011;72320;50.082;20.000;2024-01-11T03:07:56;77.00;;;39.40;;
21084;SDS011;72320;50.082;20.000;2024-01-11T03:10:22;77.80;;;36.70;;
21084;SDS011;72320;50.082;20.000;2024-01-11T03:12:50;88.80;;;37.50;;
21084;SDS011;72320;50.082;20.000;2024-01-11T03:15:16;76.60;;;38.20;;
21084;SDS011;72320;50.082;20.000;2024-01-11T03:17:42;69.10;;;35.00;;
21084;SDS011;72320;50.082;20.000;2024-01-11T03:20:09;70.60;;;36.30;;
21084;SDS011;72320;50.082;20.000;2024-01-11T03:22:35;83.00;;;39.60;;
21084;SDS011;72320;50.082;20.000;2024-01-11T03:25:01;86.60;;;36.60;;
21084;SDS011;72320;50.082;20.000;2024-01-11T03:27:27;74.30;;;38.50;;
21084;SDS011;72320;50.082;20.000;2024-01-11T03:29:54;88.40;;;39.60;;
21084;SDS011;72320;50.082;20.000;2024-01-11T03:32:20;75.00;;;38.90;;
21084;SDS011;72320;50.082;20.000;2024-01-11T03:34:46;76.00;;;38.00;;
21084;SDS011;72320;50.082;20.000;2024-01-11T03:37:13;86.70;;;40.20;;
21084;SDS011;72320;50.082;20.000;2024-01-11T03:39:42;64.90;;;36.80;;
21084;SDS011;72320;50.082;20.000;2024-01-11T03:42:08;73.40;;;39.30;;
21084;SDS011;72320;50.082;20.000;2024-01-11T03:44:36;83.60;;;37.60;;
21084;SDS011;72320;50.082;20.000;2024-01-11T03:47:03;84.70;;;38.20;;
21084;SDS011;72320;50.082;20.000;2024-01-11T03:49:29;83.60;;;36.30;;
21084;SDS011;72320;50.082;20.000;2024-01-11T03:51:56;73.90;;;36.40;;
21084;SDS011;72320;50.082;20.000;2024-01-11T03:54:22;104.60;;;40.10;;
21084;SDS011;72320;50.082;20.000;2024-01-11T03:56:48;80.40;;;36.90;;
21084;SDS011;72320;50.082;20.000;2024-01-11T03:59:14;69.30;;;35.20;;
21084;SDS011;72320;50.082;20.000;2024-01-11T04:01:41;75.40;;;38.20;;
21084;SDS011;72320;50.082;20.000;2024-01-11T04:04:07;81.00;;;36.70;;
21084;SDS011;72320;50.082;20.000;2024-01-11T04:06:34;83.80;;;39.10;;
21084;SDS011;72320;50.082;20.000;2024-01-11T04:09:00;74.10;;;36.80;;
21084;SDS011;72320;50.082;20.000;2024-01-11T04:11:30;77.10;;;36.70;;
21084;SDS011;72320;50.082;20.000;2024-01-11T04:13:56;74.10;;;35.30;;
21084;SDS011;72320;50.082;20.000;2024-01-11T04:16:22;74.40;;;35.20;;
21084;SDS011;72320;50.082;20.000;2024-01-11T04:18:48;73.60;;;35.40;;
21084;SDS011;72320;50.082;20.000;2024-01-11T04:21:24;84.10;;;37.50;;
21084;SDS011;72320;50.082;20.000;2024-01-11T04:23:54;69.10;;;33.40;;
21084;SDS011;72320;50.082;20.000;2024-01-11T04:26:21;71.30;;;36.80;;
21084;SDS011;72320;50.082;20.000;2024-01-11T04:28:51;63.40;;;31.60;;
21084;SDS011;72320;50.082;20.000;2024-01-11T04:31:20;67.10;;;35.00;;
21084;SDS011;72320;50.082;20.000;2024-01-11T04:33:47;76.40;;;33.70;;
21084;SDS011;72320;50.082;20.000;2024-01-11T04:36:13;77.80;;;35.80;;
21084;SDS011;72320;50.082;20.000;2024-01-11T04:38:39;76.30;;;35.90;;
21084;SDS011;72320;50.082;20.000;2024-01-11T04:41:09;68.60;;;34.20;;
21084;SDS011;72320;50.082;20.000;2024-01-11T04:43:40;82.00;;;35.80;;
21084;SDS011;72320;50.082;20.000;2024-01-11T04:46:18;69.40;;;37.60;;
21084;SDS011;72320;50.082;20.000;2024-01-11T04:48:49;78.00;;;36.60;;
21084;SDS011;72320;50.082;20.000;2024-01-11T04:51:17;73.50;;;37.10;;
21084;SDS011;72320;50.082;20.000;2024-01-11T04:53:44;74.30;;;37.60;;
21084;SDS011;72320;50.082;20.000;2024-01-11T04:56:13;67.90;;;35.40;;
21084;SDS011;72320;50.082;20.000;2024-01-11T04:58:42;66.20;;;33.70;;
21084;SDS011;72320;50.082;20.000;2024-01-11T05:01:13;65.10;;;32.00;;
21084;SDS011;72320;50.082;20.000;2024-01-11T05:03:41;75.40;;;34.70;;
21084;SDS011;72320;50.082;20.000;2024-01-11T05:06:17;78.40;;;32.30;;
21084;SDS011;72320;50.082;20.000;2024-01-11T05:08:46;60.30;;;30.90;;
21084;SDS011;72320;50.082;20.000;2024-01-11T05:13:45;53.80;;;31.20;;
21084;SDS011;72320;50.082;20.000;2024-01-11T05:16:24;65.70;;;30.00;;
21084;SDS011;72320;50.082;20.000;2024-01-11T05:18:51;60.20;;;31.50;;
21084;SDS011;72320;50.082;20.000;2024-01-11T05:21:18;71.50;;;31.30;;
21084;SDS011;72320;50.082;20.000;2024-01-11T05:23:44;62.00;;;31.30;;
21084;SDS011;72320;50.082;20.000;2024-01-11T05:26:11;57.20;;;29.20;;
21084;SDS011;72320;50.082;20.000;2024-01-11T05:28:38;63.60;;;27.20;;
21084;SDS011;72320;50.082;20.000;2024-01-11T05:31:09;51.30;;;25.50;;
21084;SDS011;72320;50.082;20.000;2024-01-11T05:33:37;61.20;;;27.60;;
21084;SDS011;72320;50.082;20.000;2024-01-11T05:36:04;54.90;;;26.50;;
21084;SDS011;72320;50.082;20.000;2024-01-11T05:38:30;52.40;;;24.70;;
21084;SDS011;72320;50.082;20.000;2024-01-11T05:40:56;54.20;;;27.20;;
21084;SDS011;72320;50.082;20.000;2024-01-11T05:43:22;46.20;;;24.80;;
21084;SDS011;72320;50.082;20.000;2024-01-11T05:45:49;57.10;;;26.50;;
21084;SDS011;72320;50.082;20.000;2024-01-11T05:48:16;40.70;;;22.40;;
21084;SDS011;72320;50.082;20.000;2024-01-11T05:50:44;43.30;;;22.40;;
21084;SDS011;72320;50.082;20.000;2024-01-11T05:53:13;37.10;;;21.40;;
21084;SDS011;72320;50.082;20.000;2024-01-11T05:55:40;42.60;;;21.80;;
21084;SDS011;72320;50.082;20.000;2024-01-11T05:58:06;42.70;;;21.80;;
21084;SDS011;72320;50.082;20.000;2024-01-11T06:00:32;38.40;;;20.80;;
21084;SDS011;72320;50.082;20.000;2024-01-11T06:02:58;30.00;;;18.80;;
21084;SDS011;72320;50.082;20.000;2024-01-11T06:05:25;32.20;;;17.30;;
21084;SDS011;72320;50.082;20.000;2024-01-11T06:07:54;41.50;;;19.40;;
21084;SDS011;72320;50.082;20.000;2024-01-11T06:10:20;33.80;;;18.50;;
21084;SDS011;72320;50.082;20.000;2024-01-11T06:12:47;35.40;;;17.40;;
21084;SDS011;72320;50.082;20.000;2024-01-11T06:15:13;34.10;;;18.30;;
21084;SDS011;72320;50.082;20.000;2024-01-11T06:17:41;32.00;;;18.10;;
21084;SDS011;72320;50.082;20.000;2024-01-11T06:20:07;32.80;;;17.10;;
21084;SDS011;72320;50.082;20.000;2024-01-11T06:22:35;41.30;;;17.10;;
21084;SDS011;72320;50.082;20.000;2024-01-11T06:25:01;31.00;;;16.70;;
21084;SDS011;72320;50.082;20.000;2024-01-11T06:27:27;31.60;;;17.40;;
21084;SDS011;72320;50.082;20.000;2024-01-11T06:29:53;29.10;;;16.00;;
21084;SDS011;72320;50.082;20.000;2024-01-11T06:32:19;31.60;;;17.50;;
21084;SDS011;72320;50.082;20.000;2024-01-11T06:34:45;33.00;;;17.10;;
21084;SDS011;72320;50.082;20.000;2024-01-11T06:37:13;32.60;;;17.20;;
21084;SDS011;72320;50.082;20.000;2024-01-11T06:39:39;35.40;;;15.10;;
21084;SDS011;72320;50.082;20.000;2024-01-11T06:42:05;32.30;;;15.70;;
21084;SDS011;72320;50.082;20.000;2024-01-11T06:44:31;25.70;;;16.60;;
21084;SDS011;72320;50.082;20.000;2024-01-11T06:46:57;25.70;;;14.30;;
21084;SDS011;72320;50.082;20.000;2024-01-11T06:49:23;25.10;;;14.40;;
21084;SDS011;72320;50.082;20.000;2024-01-11T06:51:49;25.00;;;15.70;;
21084;SDS011;72320;50.082;20.000;2024-01-11T06:54:15;20.70;;;12.90;;
21084;SDS011;72320;50.082;20.000;2024-01-11T06:56:41;19.80;;;12.30;;
21084;SDS011;72320;50.082;20.000;2024-01-11T06:59:08;19.90;;;11.50;;
21084;SDS011;72320;50.082;20.000;2024-01-11T07:01:34;20.60;;;11.50;;
21084;SDS011;72320;50.082;20.000;2024-01-11T07:04:00;23.60;;;12.80;;
21084;SDS011;72320;50.082;20.000;2024-01-11T07:06:26;20.80;;;13.90;;
21084;SDS011;72320;50.082;20.000;2024-01-11T07:08:52;16.40;;;12.60;;
21084;SDS011;72320;50.082;20.000;2024-01-11T07:11:18;20.40;;;12.10;;
21084;SDS011;72320;50.082;20.000;2024-01-11T07:13:45;27.30;;;12.90;;
21084;SDS011;72320;50.082;20.000;2024-01-11T07:16:11;23.50;;;13.80;;
21084;SDS011;72320;50.082;20.000;2024-01-11T07:18:37;19.60;;;12.40;;
21084;SDS011;72320;50.082;20.000;2024-01-11T07:21:03;22.60;;;10.90;;
21084;SDS011;72320;50.082;20.000;2024-01-11T07:23:29;19.60;;;11.70;;
21084;SDS011;72320;50.082;20.000;2024-01-11T07:25:55;16.80;;;9.90;;
21084;SDS011;72320;50.082;20.000;2024-01-11T07:28:21;15.50;;;9.10;;
21084;SDS011;72320;50.082;20.000;2024-01-11T07:30:52;17.30;;;9.10;;
21084;SDS011;72320;50.082;20.000;2024-01-11T07:33:19;13.00;;;8.40;;
21084;SDS011;72320;50.082;20.000;2024-01-11T07:35:47;11.60;;;7.80;;
21084;SDS011;72320;50.082;20.000;2024-01-11T07:38:13;10.60;;;7.40;;
21084;SDS011;72320;50.082;20.000;2024-01-11T07:40:40;9.80;;;8.20;;
21084;SDS011;72320;50.082;20.000;2024-01-11T07:43:06;12.90;;;7.90;;
21084;SDS011;72320;50.082;20.000;2024-01-11T07:45:32;15.30;;;8.30;;
21084;SDS011;72320;50.082;20.000;2024-01-11T07:47:58;12.20;;;7.40;;
21084;SDS011;72320;50.082;20.000;2024-01-11T07:50:25;7.90;;;6.90;;
21084;SDS011;72320;50.082;20.000;2024-01-11T07:52:51;12.10;;;8.00;;
21084;SDS011;72320;50.082;20.000;2024-01-11T07:55:17;11.50;;;6.60;;
21084;SDS011;72320;50.082;20.000;2024-01-11T07:57:42;14.80;;;7.30;;
21084;SDS011;72320;50.082;20.000;2024-01-11T08:00:09;10.10;;;6.70;;
21084;SDS011;72320;50.082;20.000;2024-01-11T08:02:35;9.00;;;6.50;;
21084;SDS011;72320;50.082;20.000;2024-01-11T08:05:01;11.40;;;7.20;;
21084;SDS011;72320;50.082;20.000;2024-01-11T08:07:28;13.10;;;6.80;;
21084;SDS011;72320;50.082;20.000;2024-01-11T08:09:54;12.20;;;6.60;;
21084;SDS011;72320;50.082;20.000;2024-01-11T08:12:20;15.00;;;7.60;;
21084;SDS011;72320;50.082;20.000;2024-01-11T08:14:46;10.90;;;7.50;;
21084;SDS011;72320;50.082;20.000;2024-01-11T08:17:14;13.60;;;8.20;;
21084;SDS011;72320;50.082;20.000;2024-01-11T08:19:40;11.20;;;7.50;;
21084;SDS011;72320;50.082;20.000;2024-01-11T08:22:09;12.30;;;7.50;;
21084;SDS011;72320;50.082;20.000;2024-01-11T08:24:36;12.00;;;6.70;;
21084;SDS011;72320;50.082;20.000;2024-01-11T08:27:02;12.20;;;7.60;;
21084;SDS011;72320;50.082;20.000;2024-01-11T08:29:29;12.10;;;7.40;;
21084;SDS011;72320;50.082;20.000;2024-01-11T08:31:56;12.50;;;6.60;;
21084;SDS011;72320;50.082;20.000;2024-01-11T08:34:23;8.00;;;6.50;;
21084;SDS011;72320;50.082;20.000;2024-01-11T08:36:51;13.80;;;6.80;;
21084;SDS011;72320;50.082;20.000;2024-01-11T08:39:17;10.80;;;6.30;;
21084;SDS011;72320;50.082;20.000;2024-01-11T08:41:44;12.70;;;7.60;;
21084;SDS011;72320;50.082;20.000;2024-01-11T08:44:10;15.50;;;8.20;;
21084;SDS011;72320;50.082;20.000;2024-01-11T08:46:36;12.60;;;8.50;;
21084;SDS011;72320;50.082;20.000;2024-01-11T08:49:02;15.70;;;7.40;;
21084;SDS011;72320;50.082;20.000;2024-01-11T08:51:29;15.20;;;9.30;;
21084;SDS011;72320;50.082;20.000;2024-01-11T08:53:56;13.30;;;8.30;;
21084;SDS011;72320;50.082;20.000;2024-01-11T08:56:22;12.50;;;8.00;;
21084;SDS011;72320;50.082;20.000;2024-01-11T08:58:48;11.00;;;6.50;;
21084;SDS011;72320;50.082;20.000;2024-01-11T09:01:15;12.70;;;6.90;;
21084;SDS011;72320;50.082;20.000;2024-01-11T09:03:41;10.10;;;6.80;;
21084;SDS011;72320;50.082;20.000;2024-01-11T09:06:08;9.90;;;6.20;;
21084;SDS011;72320;50.082;20.000;2024-01-11T09:08:34;11.10;;;6.00;;
21084;SDS011;72320;50.082;20.000;2024-01-11T09:11:00;9.40;;;5.90;;
21084;SDS011;72320;50.082;20.000;2024-01-11T09:13:28;11.30;;;6.90;;
21084;SDS011;72320;50.082;20.000;2024-01-11T09:15:55;10.10;;;6.50;;
21084;SDS011;72320;50.082;20.000;2024-01-11T09:18:22;10.60;;;6.20;;
21084;SDS011;72320;50.082;20.000;2024-01-11T09:20:48;10.40;;;7.30;;
21084;SDS011;72320;50.082;20.000;2024-01-11T09:23:16;9.30;;;6.10;;
21084;SDS011;72320;50.082;20.000;2024-01-11T09:25:43;9.40;;;6.10;;
21084;SDS011;72320;50.082;20.000;2024-01-11T09:28:09;10.10;;;7.10;;
21084;SDS011;72320;50.082;20.000;2024-01-11T09:30:35;16.10;;;7.20;;
21084;SDS011;72320;50.082;20.000;2024-01-11T09:33:01;8.90;;;6.60;;
21084;SDS011;72320;50.082;20.000;2024-01-11T09:35:28;12.30;;;6.80;;
21084;SDS011;72320;50.082;20.000;2024-01-11T09:37:54;16.10;;;7.90;;
21084;SDS011;72320;50.082;20.000;2024-01-11T09:40:21;9.00;;;6.20;;
21084;SDS011;72320;50.082;20.000;2024-01-11T09:42:47;10.80;;;6.50;;
21084;SDS011;72320;50.082;20.000;2024-01-11T09:45:15;10.30;;;7.00;;
21084;SDS011;72320;50.082;20.000;2024-01-11T09:47:45;9.10;;;6.00;;
21084;SDS011;72320;50.082;20.000;2024-01-11T09:50:15;11.50;;;6.50;;
21084;SDS011;72320;50.082;20.000;2024-01-11T09:52:50;7.50;;;6.20;;
21084;SDS011;72320;50.082;20.000;2024-01-11T09:55:17;10.20;;;6.20;;
21084;SDS011;72320;50.082;20.000;2024-01-11T09:57:45;7.90;;;5.80;;
21084;SDS011;72320;50.082;20.000;2024-01-11T10:00:32;14.80;;;7.90;;
21084;SDS011;72320;50.082;20.000;2024-01-11T10:03:00;10.50;;;5.50;;
21084;SDS011;72320;50.082;20.000;2024-01-11T10:05:29;11.40;;;7.10;;
21084;SDS011;72320;50.082;20.000;2024-01-11T10:07:55;11.80;;;5.90;;
21084;SDS011;72320;50.082;20.000;2024-01-11T10:10:25;10.80;;;6.70;;
21084;SDS011;72320;50.082;20.000;2024-01-11T10:12:53;11.40;;;5.90;;
21084;SDS011;72320;50.082;20.000;2024-01-11T10:15:24;13.00;;;7.00;;
21084;SDS011;72320;50.082;20.000;2024-01-11T10:17:50;11.50;;;6.20;;
21084;SDS011;72320;50.082;20.000;2024-01-11T10:20:16;12.30;;;6.50;;
21084;SDS011;72320;50.082;20.000;2024-01-11T10:22:43;11.30;;;6.90;;
21084;SDS011;72320;50.082;20.000;2024-01-11T10:25:13;9.80;;;6.00;;
21084;SDS011;72320;50.082;20.000;2024-01-11T10:27:42;9.80;;;6.30;;
21084;SDS011;72320;50.082;20.000;2024-01-11T10:30:14;15.40;;;6.20;;
21084;SDS011;72320;50.082;20.000;2024-01-11T10:32:46;10.50;;;6.70;;
21084;SDS011;72320;50.082;20.000;2024-01-11T10:35:13;11.30;;;6.90;;
21084;SDS011;72320;50.082;20.000;2024-01-11T10:37:41;9.00;;;6.00;;
21084;SDS011;72320;50.082;20.000;2024-01-11T10:40:10;13.30;;;7.00;;
21084;SDS011;72320;50.082;20.000;2024-01-11T10:42:42;10.60;;;6.30;;
21084;SDS011;72320;50.082;20.000;2024-01-11T10:45:14;9.70;;;6.80;;
21084;SDS011;72320;50.082;20.000;2024-01-11T10:47:51;8.70;;;6.00;;
21084;SDS011;72320;50.082;20.000;2024-01-11T10:50:22;11.70;;;6.20;;
21084;SDS011;72320;50.082;20.000;2024-01-11T10:55:50;10.50;;;6.20;;
21084;SDS011;72320;50.082;20.000;2024-01-11T10:58:16;12.50;;;7.50;;
21084;SDS011;72320;50.082;20.000;2024-01-11T11:00:47;12.00;;;6.90;;
21084;SDS011;72320;50.082;20.000;2024-01-11T11:03:18;11.30;;;7.10;;
21084;SDS011;72320;50.082;20.000;2024-01-11T11:05:47;16.50;;;7.70;;
21084;SDS011;72320;50.082;20.000;2024-01-11T11:08:17;19.10;;;9.80;;
21084;SDS011;72320;50.082;20.000;2024-01-11T11:10:47;13.50;;;7.60;;
21084;SDS011;72320;50.082;20.000;2024-01-11T11:13:15;12.30;;;7.60;;
21084;SDS011;72320;50.082;20.000;2024-01-11T11:15:45;10.80;;;7.10;;
21084;SDS011;72320;50.082;20.000;2024-01-11T11:18:13;11.40;;;6.50;;
21084;SDS011;72320;50.082;20.000;2024-01-11T11:20:42;12.50;;;6.90;;
21084;SDS011;72320;50.082;20.000;2024-01-11T11:23:09;10.90;;;6.70;;
21084;SDS011;72320;50.082;20.000;2024-01-11T11:25:37;12.80;;;6.30;;
21084;SDS011;72320;50.082;20.000;2024-01-11T11:28:05;11.60;;;7.20;;
21084;SDS011;72320;50.082;20.000;2024-01-11T11:30:32;12.40;;;6.70;;
21084;SDS011;72320;50.082;20.000;2024-01-11T11:33:19;8.00;;;5.60;;
21084;SDS011;72320;50.082;20.000;2024-01-11T11:35:51;12.00;;;6.00;;
21084;SDS011;72320;50.082;20.000;2024-01-11T11:38:26;12.00;;;6.20;;
21084;SDS011;72320;50.082;20.000;2024-01-11T11:40:58;7.90;;;5.00;;
21084;SDS011;72320;50.082;20.000;2024-01-11T11:43:27;9.80;;;5.50;;
21084;SDS011;72320;50.082;20.000;2024-01-11T11:45:55;9.60;;;5.90;;
21084;SDS011;72320;50.082;20.000;2024-01-11T11:51:10;10.00;;;5.80;;
21084;SDS011;72320;50.082;20.000;2024-01-11T11:53:39;7.60;;;5.10;;
21084;SDS011;72320;50.082;20.000;2024-01-11T11:56:07;8.20;;;5.20;;
21084;SDS011;72320;50.082;20.000;2024-01-11T11:58:36;8.50;;;5.70;;
21084;SDS011;72320;50.082;20.000;2024-01-11T12:01:03;10.20;;;6.00;;
21084;SDS011;72320;50.082;20.000;2024-01-11T12:03:31;9.40;;;5.50;;
21084;SDS011;72320;50.082;20.000;2024-01-11T12:06:05;6.60;;;5.40;;
21084;SDS011;72320;50.082;20.000;2024-01-11T12:08:32;7.90;;;5.30;;
21084;SDS011;72320;50.082;20.000;2024-01-11T12:10:59;11.90;;;6.40;;
21084;SDS011;72320;50.082;20.000;2024-01-11T12:13:26;12.00;;;5.40;;
21084;SDS011;72320;50.082;20.000;2024-01-11T12:15:52;12.10;;;5.80;;
21084;SDS011;72320;50.082;20.000;2024-01-11T12:18:19;9.10;;;5.70;;
21084;SDS011;72320;50.082;20.000;2024-01-11T12:20:45;10.60;;;6.60;;
21084;SDS011;72320;50.082;20.000;2024-01-11T12:23:11;6.90;;;5.30;;
21084;SDS011;72320;50.082;20.000;2024-01-11T12:25:42;14.90;;;7.10;;
21084;SDS011;72320;50.082;20.000;2024-01-11T12:28:08;9.60;;;5.30;;
21084;SDS011;72320;50.082;20.000;2024-01-11T12:30:35;14.00;;;6.20;;
21084;SDS011;72320;50.082;20.000;2024-01-11T12:33:01;11.80;;;6.20;;
21084;SDS011;72320;50.082;20.000;2024-01-11T12:35:29;14.10;;;6.90;;
21084;SDS011;72320;50.082;20.000;2024-01-11T12:38:00;10.40;;;6.50;;
21084;SDS011;72320;50.082;20.000;2024-01-11T12:40:35;11.20;;;7.00;;
21084;SDS011;72320;50.082;20.000;2024-01-11T12:43:06;10.70;;;6.40;;
21084;SDS011;72320;50.082;20.000;2024-01-11T12:45:35;14.90;;;6.70;;
21084;SDS011;72320;50.082;20.000;2024-01-11T12:48:02;14.10;;;6.80;;
21084;SDS011;72320;50.082;20.000;2024-01-11T12:50:36;14.70;;;7.50;;
21084;SDS011;72320;50.082;20.000;2024-01-11T12:53:07;12.00;;;6.50;;
21084;SDS011;72320;50.082;20.000;2024-01-11T12:55:47;12.30;;;7.60;;
21084;SDS011;72320;50.082;20.000;2024-01-11T12:58:19;15.00;;;7.00;;
21084;SDS011;72320;50.082;20.000;2024-01-11T13:00:47;14.80;;;7.50;;
21084;SDS011;72320;50.082;20.000;2024-01-11T13:03:14;12.40;;;6.80;;
21084;SDS011;72320;50.082;20.000;2024-01-11T13:05:41;13.20;;;7.80;;
21084;SDS011;72320;50.082;20.000;2024-01-11T13:08:10;13.70;;;7.30;;
21084;SDS011;72320;50.082;20.000;2024-01-11T13:10:40;14.70;;;6.90;;
21084;SDS011;72320;50.082;20.000;2024-01-11T13:13:06;12.10;;;6.90;;
21084;SDS011;72320;50.082;20.000;2024-01-11T13:15:33;14.60;;;7.00;;
21084;SDS011;72320;50.082;20.000;2024-01-11T13:18:02;11.50;;;7.70;;
21084;SDS011;72320;50.082;20.000;2024-01-11T13:20:30;15.90;;;8.20;;
21084;SDS011;72320;50.082;20.000;2024-01-11T13:23:21;15.70;;;7.80;;
21084;SDS011;72320;50.082;20.000;2024-01-11T13:25:48;14.10;;;7.60;;
21084;SDS011;72320;50.082;20.000;2024-01-11T13:28:18;13.70;;;8.10;;
21084;SDS011;72320;50.082;20.000;2024-01-11T13:30:45;10.10;;;6.70;;
21084;SDS011;72320;50.082;20.000;2024-01-11T13:33:12;14.00;;;7.90;;
21084;SDS011;72320;50.082;20.000;2024-01-11T13:35:39;14.80;;;8.20;;
21084;SDS011;72320;50.082;20.000;2024-01-11T13:38:06;15.90;;;7.90;;
21084;SDS011;72320;50.082;20.000;2024-01-11T13:40:33;12.40;;;7.80;;
21084;SDS011;72320;50.082;20.000;2024-01-11T13:43:00;17.30;;;7.70;;
21084;SDS011;72320;50.082;20.000;2024-01-11T13:45:32;17.90;;;8.80;;
21084;SDS011;72320;50.082;20.000;2024-01-11T13:48:05;18.50;;;7.80;;
21084;SDS011;72320;50.082;20.000;2024-01-11T13:54:12;12.20;;;7.70;;
21084;SDS011;72320;50.082;20.000;2024-01-11T13:56:37;16.20;;;8.00;;
21084;SDS011;72320;50.082;20.000;2024-01-11T13:59:03;15.60;;;8.10;;
21084;SDS011;72320;50.082;20.000;2024-01-11T14:01:30;15.80;;;8.50;;
21084;SDS011;72320;50.082;20.000;2024-01-11T14:03:55;18.90;;;8.50;;
21084;SDS011;72320;50.082;20.000;2024-01-11T14:06:21;20.80;;;10.00;;
21084;SDS011;72320;50.082;20.000;2024-01-11T14:08:47;17.50;;;8.80;;
21084;SDS011;72320;50.082;20.000;2024-01-11T14:11:13;14.20;;;9.20;;
21084;SDS011;72320;50.082;20.000;2024-01-11T14:13:39;13.50;;;7.60;;
21084;SDS011;72320;50.082;20.000;2024-01-11T14:16:06;16.40;;;8.00;;
21084;SDS011;72320;50.082;20.000;2024-01-11T14:18:31;18.50;;;8.40;;
21084;SDS011;72320;50.082;20.000;2024-01-11T14:20:57;19.20;;;10.10;;
21084;SDS011;72320;50.082;20.000;2024-01-11T14:23:23;17.40;;;9.20;;
21084;SDS011;72320;50.082;20.000;2024-01-11T14:25:57;20.40;;;9.30;;
21084;SDS011;72320;50.082;20.000;2024-01-11T14:28:24;15.70;;;9.30;;
21084;SDS011;72320;50.082;20.000;2024-01-11T14:30:50;18.20;;;9.20;;